createdAt,value
2016-05-12T00:00:42.870Z,45.3
2016-05-12T00:01:45.638Z,45.88
2016-05-12T00:02:39.563Z,45.68
2016-05-12T00:04:45.505Z,45.78
2016-05-12T00:05:39.430Z,45.3
2016-05-12T00:06:39.604Z,45.59
2016-05-12T00:07:42.341Z,45.3
2016-05-12T00:08:39.547Z,45.4
2016-05-12T00:09:39.237Z,45.59
2016-05-12T00:10:45.069Z,45.4
2016-05-12T00:11:39.149Z,45.5
2016-05-12T00:12:39.105Z,45.68
2016-05-12T00:13:41.936Z,45.3
2016-05-12T00:14:42.032Z,45.5
2016-05-12T00:15:38.988Z,45.4
2016-05-12T00:16:41.928Z,45.4
2016-05-12T00:17:38.899Z,45.21
2016-05-12T00:18:41.856Z,45.01
2016-05-12T00:19:38.812Z,45.11
2016-05-12T00:20:38.736Z,45.11
2016-05-12T00:21:41.551Z,45.01
2016-05-12T00:22:38.491Z,45.3
2016-05-12T00:23:38.604Z,45.11
2016-05-12T00:24:38.560Z,45.01
2016-05-12T00:25:41.531Z,44.92
2016-05-12T00:26:38.470Z,45.01
2016-05-12T00:27:38.426Z,45.3
2016-05-12T00:28:38.382Z,45.4
2016-05-12T00:29:38.338Z,44.63
2016-05-12T00:30:41.309Z,44.73
2016-05-12T00:31:38.281Z,44.73
2016-05-12T00:32:38.206Z,44.82
2016-05-12T00:33:41.161Z,44.82
2016-05-12T00:34:38.102Z,44.73
2016-05-12T00:35:38.058Z,44.73
2016-05-12T00:36:38.060Z,44.82
2016-05-12T00:37:38.000Z,44.73
2016-05-12T00:38:37.925Z,45.21
2016-05-12T00:39:40.881Z,45.21
2016-05-12T00:40:40.836Z,45.21
2016-05-12T00:41:37.777Z,45.01
2016-05-12T00:42:40.607Z,45.21
2016-05-12T00:43:37.688Z,45.01
2016-05-12T00:44:37.487Z,45.5
2016-05-12T00:45:37.443Z,44.92
2016-05-12T00:46:37.400Z,45.5
2016-05-12T00:47:43.559Z,45.01
2016-05-12T00:48:40.483Z,45.11
2016-05-12T00:49:40.454Z,44.92
2016-05-12T00:50:40.379Z,45.3
2016-05-12T00:51:40.334Z,45.11
2016-05-12T00:52:40.134Z,45.21
2016-05-12T00:53:40.246Z,45.4
2016-05-12T00:54:40.203Z,45.3
2016-05-12T00:55:40.173Z,45.3
2016-05-12T00:56:40.161Z,45.47
2016-05-12T00:57:40.086Z,45.18
2016-05-12T00:58:36.870Z,45.09
2016-05-12T00:59:39.981Z,45.09
2016-05-12T01:00:36.921Z,45.28
2016-05-12T01:01:40.190Z,45.09
2016-05-12T01:02:39.850Z,45.18
2016-05-12T01:03:45.789Z,45.18
2016-05-12T01:04:39.744Z,45
2016-05-12T01:05:36.700Z,45.37
2016-05-12T01:06:36.641Z,45.37
2016-05-12T01:07:36.613Z,45.37
2016-05-12T01:08:39.569Z,45.47
2016-05-12T01:09:36.508Z,45.37
2016-05-12T01:10:39.480Z,45.47
2016-05-12T01:11:39.404Z,45.37
2016-05-12T01:12:36.360Z,45.37
2016-05-12T01:13:36.519Z,45.37
2016-05-12T01:14:36.272Z,45.57
2016-05-12T01:15:39.228Z,45.47
2016-05-12T01:16:39.199Z,45.47
2016-05-12T01:17:38.998Z,45.57
2016-05-12T01:18:36.095Z,45.47
2016-05-12T01:19:36.035Z,45.47
2016-05-12T01:20:39.006Z,45.67
2016-05-12T01:21:36.322Z,46.14
2016-05-12T01:22:35.918Z,45.95
2016-05-12T01:23:35.874Z,46.05
2016-05-12T01:24:35.815Z,46.05
2016-05-12T01:25:38.786Z,45.67
2016-05-12T01:26:35.773Z,45.95
2016-05-12T01:27:35.759Z,46.24
2016-05-12T01:28:35.637Z,46.24
2016-05-12T01:29:35.593Z,46.14
2016-05-12T01:30:35.581Z,46.24
2016-05-12T01:31:38.505Z,46.24
2016-05-12T01:32:38.320Z,46.34
2016-05-12T01:33:35.416Z,46.34
2016-05-12T01:34:38.216Z,46.34
2016-05-12T01:35:35.328Z,46.34
2016-05-12T01:36:41.269Z,46.43
2016-05-12T01:37:38.240Z,46.24
2016-05-12T01:38:35.227Z,46.43
2016-05-12T01:39:34.980Z,46.34
2016-05-12T01:40:35.107Z,46.34
2016-05-12T01:41:35.033Z,46.62
2016-05-12T01:42:37.988Z,46.62
2016-05-12T01:43:40.974Z,46.72
2016-05-12T01:44:34.896Z,46.31
2016-05-12T01:45:43.886Z,46.7
2016-05-12T01:46:41.139Z,46.7
2016-05-12T01:47:37.766Z,46.6
2016-05-12T01:48:34.735Z,46.6
2016-05-12T01:49:34.660Z,46.6
2016-05-12T01:50:34.476Z,46.6
2016-05-12T01:51:34.571Z,46.6
2016-05-12T01:52:34.527Z,46.6
2016-05-12T01:53:40.501Z,47.08
2016-05-12T01:54:34.439Z,46.89
2016-05-12T01:55:34.395Z,46.79
2016-05-12T01:56:34.179Z,46.79
2016-05-12T01:57:37.325Z,46.22
2016-05-12T01:58:34.247Z,46.5
2016-05-12T01:59:34.218Z,46.41
2016-05-12T02:00:34.174Z,46.79
2016-05-12T02:01:34.176Z,46.89
2016-05-12T02:02:33.913Z,46.89
2016-05-12T02:03:37.045Z,46.79
2016-05-12T02:04:33.826Z,46.98
2016-05-12T02:05:33.969Z,47.08
2016-05-12T02:06:33.893Z,46.79
2016-05-12T02:07:36.836Z,47.17
2016-05-12T02:08:36.636Z,47.37
2016-05-12T02:09:33.745Z,47.27
2016-05-12T02:10:33.700Z,47.56
2016-05-12T02:11:33.657Z,47.46
2016-05-12T02:12:33.613Z,47.56
2016-05-12T02:13:33.552Z,47.17
2016-05-12T02:14:33.508Z,47.27
2016-05-12T02:15:33.480Z,47.46
2016-05-12T02:16:33.545Z,47.46
2016-05-12T02:17:33.689Z,47.56
2016-05-12T02:18:36.334Z,47.56
2016-05-12T02:19:36.291Z,47.44
2016-05-12T02:20:33.244Z,47.94
2016-05-12T02:21:36.218Z,47.85
2016-05-12T02:22:33.140Z,47.73
2016-05-12T02:23:36.332Z,47.73
2016-05-12T02:24:33.051Z,47.75
2016-05-12T02:25:33.007Z,48.02
2016-05-12T02:26:32.854Z,47.92
2016-05-12T02:27:32.934Z,48.02
2016-05-12T02:28:33.390Z,48.21
2016-05-12T02:29:32.658Z,48.3
2016-05-12T02:30:32.786Z,48.11
2016-05-12T02:31:32.726Z,48.02
2016-05-12T02:32:35.542Z,48.02
2016-05-12T02:33:32.638Z,48.21
2016-05-12T02:34:32.828Z,48.4
2016-05-12T02:35:32.549Z,48.02
2016-05-12T02:36:32.521Z,48.21
2016-05-12T02:37:32.461Z,48.11
2016-05-12T02:38:32.416Z,48.11
2016-05-12T02:39:32.233Z,48.21
2016-05-12T02:40:32.313Z,48.4
2016-05-12T02:41:32.269Z,48.4
2016-05-12T02:42:32.287Z,48.3
2016-05-12T02:43:32.180Z,48.02
2016-05-12T02:44:32.121Z,48.4
2016-05-12T02:45:31.919Z,48.4
2016-05-12T02:46:32.047Z,48.3
2016-05-12T02:47:35.004Z,48.3
2016-05-12T02:48:31.803Z,48.02
2016-05-12T02:49:31.899Z,48.3
2016-05-12T02:50:34.887Z,48.4
2016-05-12T02:51:34.827Z,48.4
2016-05-12T02:52:31.768Z,48.4
2016-05-12T02:53:31.738Z,48.4
2016-05-12T02:54:34.663Z,48.3
2016-05-12T02:55:31.618Z,48.21
2016-05-12T02:56:31.574Z,48.21
2016-05-12T02:57:31.545Z,48.4
2016-05-12T02:58:31.470Z,48.3
2016-05-12T02:59:31.427Z,48.4
2016-05-12T03:00:31.414Z,48.4
2016-05-12T03:01:34.870Z,48.88
2016-05-12T03:02:31.309Z,48.88
2016-05-12T03:03:31.250Z,48.78
2016-05-12T03:04:34.033Z,48.69
2016-05-12T03:05:34.162Z,48.88
2016-05-12T03:06:34.101Z,48.66
2016-05-12T03:07:31.573Z,48.69
2016-05-12T03:08:31.013Z,48.69
2016-05-12T03:09:30.984Z,48.69
2016-05-12T03:10:33.800Z,48.88
2016-05-12T03:11:30.897Z,48.47
2016-05-12T03:12:36.836Z,48.78
2016-05-12T03:13:30.792Z,48.47
2016-05-12T03:14:42.766Z,48.88
2016-05-12T03:15:33.704Z,49.05
2016-05-12T03:16:34.019Z,48.75
2016-05-12T03:17:30.615Z,48.88
2016-05-12T03:18:33.572Z,48.85
2016-05-12T03:19:33.730Z,48.57
2016-05-12T03:20:30.483Z,48.57
2016-05-12T03:21:30.439Z,48.85
2016-05-12T03:22:30.363Z,48.95
2016-05-12T03:23:36.365Z,48.95
2016-05-12T03:24:33.274Z,48.75
2016-05-12T03:25:30.231Z,49.14
2016-05-12T03:26:33.171Z,49.43
2016-05-12T03:27:29.970Z,49.33
2016-05-12T03:28:33.098Z,49.33
2016-05-12T03:29:30.023Z,49.43
2016-05-12T03:30:29.994Z,49.52
2016-05-12T03:31:29.965Z,49.43
2016-05-12T03:32:29.890Z,49.52
2016-05-12T03:33:30.049Z,49.81
2016-05-12T03:34:32.817Z,49.81
2016-05-12T03:35:29.758Z,49.71
2016-05-12T03:36:29.728Z,49.52
2016-05-12T03:37:32.513Z,49.62
2016-05-12T03:38:29.812Z,49.91
2016-05-12T03:39:29.565Z,49.71
2016-05-12T03:40:32.537Z,50.2
2016-05-12T03:41:29.477Z,49.91
2016-05-12T03:42:29.447Z,50.29
2016-05-12T03:43:29.388Z,50.29
2016-05-12T03:44:29.203Z,50.58
2016-05-12T03:45:32.300Z,50.29
2016-05-12T03:46:29.458Z,50.2
2016-05-12T03:47:32.399Z,50.38
2016-05-12T03:48:29.152Z,50.1
2016-05-12T03:49:29.092Z,50
2016-05-12T03:50:29.048Z,50
2016-05-12T03:51:29.004Z,50.1
2016-05-12T03:52:29.444Z,50.2
2016-05-12T03:53:34.963Z,50
2016-05-12T03:54:28.871Z,49.91
2016-05-12T03:55:28.843Z,49.81
2016-05-12T03:56:34.814Z,50.2
2016-05-12T03:57:28.723Z,49.81
2016-05-12T03:58:34.695Z,50.1
2016-05-12T03:59:34.651Z,50.1
2016-05-12T04:00:31.607Z,50
2016-05-12T04:01:31.765Z,50.1
2016-05-12T04:02:28.487Z,50.1
2016-05-12T04:03:28.442Z,50
2016-05-12T04:04:31.429Z,50
2016-05-12T04:05:28.354Z,50.1
2016-05-12T04:06:31.310Z,50
2016-05-12T04:07:28.328Z,50
2016-05-12T04:08:34.253Z,50.2
2016-05-12T04:09:28.520Z,50.1
2016-05-12T04:10:27.977Z,50
2016-05-12T04:11:31.073Z,49.71
2016-05-12T04:12:28.233Z,49.91
2016-05-12T04:13:27.985Z,49.81
2016-05-12T04:14:27.941Z,49.81
2016-05-12T04:15:31.115Z,49.81
2016-05-12T04:16:28.258Z,49.71
2016-05-12T04:17:30.792Z,49.91
2016-05-12T04:18:27.748Z,49.71
2016-05-12T04:19:27.705Z,50.1
2016-05-12T04:20:27.660Z,49.81
2016-05-12T04:21:27.616Z,50.1
2016-05-12T04:22:30.555Z,49.81
2016-05-12T04:23:27.512Z,49.71
2016-05-12T04:24:30.482Z,49.62
2016-05-12T04:25:27.423Z,49.62
2016-05-12T04:26:27.566Z,49.52
2016-05-12T04:27:30.335Z,49.43
2016-05-12T04:28:27.290Z,49.62
2016-05-12T04:29:27.231Z,50
2016-05-12T04:30:27.187Z,50.1
2016-05-12T04:31:27.737Z,49.71
2016-05-12T04:32:27.301Z,49.71
2016-05-12T04:33:27.257Z,49.91
2016-05-12T04:34:27.042Z,49.91
2016-05-12T04:35:27.028Z,50
2016-05-12T04:36:27.047Z,49.62
2016-05-12T04:37:30.064Z,49.52
2016-05-12T04:38:29.818Z,49.81
2016-05-12T04:39:26.759Z,49.81
2016-05-12T04:40:26.729Z,49.81
2016-05-12T04:41:29.716Z,49.71
2016-05-12T04:42:29.469Z,49.81
2016-05-12T04:43:26.580Z,49.91
2016-05-12T04:44:26.381Z,49.81
2016-05-12T04:45:32.525Z,49.81
2016-05-12T04:46:26.636Z,49.71
2016-05-12T04:47:26.389Z,49.71
2016-05-12T04:48:26.329Z,49.62
2016-05-12T04:49:26.300Z,49.62
2016-05-12T04:50:29.474Z,50.1
2016-05-12T04:51:26.213Z,49.91
2016-05-12T04:52:32.402Z,49.81
2016-05-12T04:53:26.124Z,49.71
2016-05-12T04:54:26.079Z,49.52
2016-05-12T04:55:26.223Z,49.33
2016-05-12T04:56:25.976Z,49.24
2016-05-12T04:57:28.932Z,49.24
2016-05-12T04:58:28.902Z,49.33
2016-05-12T04:59:25.843Z,49.33
2016-05-12T05:00:26.502Z,49.33
2016-05-12T05:01:25.660Z,49.24
2016-05-12T05:02:28.538Z,49.24
2016-05-12T05:03:28.665Z,49.52
2016-05-12T05:04:28.591Z,48.75
2016-05-12T05:05:25.546Z,48.95
2016-05-12T05:06:28.706Z,48.88
2016-05-12T05:07:25.459Z,48.85
2016-05-12T05:08:25.414Z,49.07
2016-05-12T05:09:28.401Z,48.69
2016-05-12T05:10:25.325Z,48.97
2016-05-12T05:11:25.687Z,49.16
2016-05-12T05:12:25.206Z,49.07
2016-05-12T05:13:25.287Z,48.59
2016-05-12T05:14:25.445Z,48.69
2016-05-12T05:15:25.089Z,48.69
2016-05-12T05:16:25.122Z,48.69
2016-05-12T05:17:25.000Z,48.3
2016-05-12T05:18:27.956Z,48.49
2016-05-12T05:19:24.756Z,48.11
2016-05-12T05:20:24.868Z,48.3
2016-05-12T05:21:24.808Z,48.02
2016-05-12T05:22:24.764Z,48.02
2016-05-12T05:23:24.735Z,48.02
2016-05-12T05:24:27.677Z,48.02
2016-05-12T05:25:27.632Z,48.21
2016-05-12T05:26:27.588Z,48.11
2016-05-12T05:27:24.543Z,47.82
2016-05-12T05:28:27.921Z,48.02
2016-05-12T05:29:24.439Z,47.73
2016-05-12T05:30:27.410Z,47.92
2016-05-12T05:31:24.257Z,47.73
2016-05-12T05:32:27.307Z,47.53
2016-05-12T05:33:24.106Z,47.53
2016-05-12T05:34:24.203Z,47.44
2016-05-12T05:35:24.190Z,47.46
2016-05-12T05:36:27.114Z,47.53
2016-05-12T05:37:24.070Z,47.53
2016-05-12T05:38:30.041Z,47.63
2016-05-12T05:39:24.029Z,47.46
2016-05-12T05:40:23.923Z,47.56
2016-05-12T05:41:23.940Z,47.46
2016-05-12T05:42:26.834Z,47.27
2016-05-12T05:43:26.805Z,47.37
2016-05-12T05:44:26.744Z,47.08
2016-05-12T05:45:23.701Z,47.37
2016-05-12T05:46:23.485Z,47.46
2016-05-12T05:47:23.597Z,47.08
2016-05-12T05:48:23.553Z,46.98
2016-05-12T05:49:23.508Z,46.7
2016-05-12T05:50:23.667Z,46.89
2016-05-12T05:51:23.280Z,46.79
2016-05-12T05:52:23.360Z,46.6
2016-05-12T05:53:23.332Z,46.98
2016-05-12T05:54:26.287Z,46.89
2016-05-12T05:55:23.071Z,46.7
2016-05-12T05:56:23.044Z,46.79
2016-05-12T05:57:26.140Z,46.6
2016-05-12T05:58:26.298Z,46.31
2016-05-12T05:59:26.066Z,46.12
2016-05-12T06:00:23.085Z,46.14
2016-05-12T06:01:22.963Z,46.43
2016-05-12T06:02:22.903Z,45.95
2016-05-12T06:03:22.874Z,45.86
2016-05-12T06:04:25.830Z,45.95
2016-05-12T06:05:22.787Z,45.95
2016-05-12T06:06:25.726Z,46.14
2016-05-12T06:07:29.104Z,45.47
2016-05-12T06:08:22.622Z,46.05
2016-05-12T06:09:22.609Z,45.57
2016-05-12T06:10:22.377Z,45.76
2016-05-12T06:11:25.490Z,45.28
2016-05-12T06:12:22.430Z,45.37
2016-05-12T06:13:25.245Z,45.09
2016-05-12T06:14:25.560Z,45.09
2016-05-12T06:15:25.141Z,45.3
2016-05-12T06:16:25.800Z,45
2016-05-12T06:17:25.069Z,44.82
2016-05-12T06:18:22.180Z,44.63
2016-05-12T06:19:22.324Z,44.24
2016-05-12T06:20:22.077Z,44.34
2016-05-12T06:21:24.891Z,44.54
2016-05-12T06:22:25.191Z,44.63
2016-05-12T06:23:21.944Z,44.15
2016-05-12T06:24:21.883Z,44.06
2016-05-12T06:25:22.043Z,43.96
2016-05-12T06:26:24.827Z,44.15
2016-05-12T06:27:21.767Z,43.67
2016-05-12T06:28:24.723Z,43.87
2016-05-12T06:29:24.679Z,43.79
2016-05-12T06:30:21.619Z,43.5
2016-05-12T06:31:21.621Z,43.4
2016-05-12T06:32:21.530Z,43.4
2016-05-12T06:33:21.486Z,43.12
2016-05-12T06:34:24.443Z,43.12
2016-05-12T06:35:21.257Z,43.12
2016-05-12T06:36:21.494Z,43.12
2016-05-12T06:37:21.326Z,42.83
2016-05-12T06:38:24.265Z,42.83
2016-05-12T06:39:27.237Z,42.64
2016-05-12T06:40:30.193Z,42.35
2016-05-12T06:41:21.321Z,42.54
2016-05-12T06:42:27.151Z,42.64
2016-05-12T06:43:24.029Z,42.54
2016-05-12T06:44:21.016Z,42.25
2016-05-12T06:45:23.940Z,42.35
2016-05-12T06:46:20.740Z,42.66
2016-05-12T06:47:21.070Z,42.08
2016-05-12T06:48:20.823Z,41.79
2016-05-12T06:49:20.779Z,41.7
2016-05-12T06:50:23.778Z,41.6
2016-05-12T06:51:23.761Z,41.5
2016-05-12T06:52:23.775Z,41.31
2016-05-12T06:53:23.774Z,40.83
2016-05-12T06:54:20.742Z,41.5
2016-05-12T06:55:20.729Z,41.41
2016-05-12T06:56:21.091Z,41.22
2016-05-12T06:57:20.655Z,41.31
2016-05-12T06:58:20.658Z,41.41
2016-05-12T06:59:20.598Z,41.31
2016-05-12T07:00:20.574Z,41.31
2016-05-12T07:01:20.583Z,41.12
2016-05-12T07:02:23.497Z,41.5
2016-05-12T07:03:20.443Z,41.02
2016-05-12T07:04:23.466Z,41.12
2016-05-12T07:05:23.377Z,41.05
2016-05-12T07:06:20.335Z,41.14
2016-05-12T07:07:20.278Z,41.05
2016-05-12T07:08:23.250Z,41.24
2016-05-12T07:09:23.412Z,40.85
2016-05-12T07:10:20.166Z,40.47
2016-05-12T07:11:20.137Z,40.47
2016-05-12T07:12:23.062Z,40.47
2016-05-12T07:13:20.018Z,40.37
2016-05-12T07:14:22.819Z,40.37
2016-05-12T07:15:22.932Z,40.47
2016-05-12T07:16:23.169Z,40.28
2016-05-12T07:17:22.688Z,40.18
2016-05-12T07:18:20.175Z,39.99
2016-05-12T07:19:22.959Z,39.7
2016-05-12T07:20:19.712Z,40.01
2016-05-12T07:21:19.652Z,40.18
2016-05-12T07:22:19.608Z,40.37
2016-05-12T07:23:22.439Z,39.62
2016-05-12T07:24:22.551Z,39.72
2016-05-12T07:25:19.476Z,40.11
2016-05-12T07:26:19.447Z,39.91
2016-05-12T07:27:22.418Z,39.53
2016-05-12T07:28:19.265Z,39.24
2016-05-12T07:29:22.283Z,39.33
2016-05-12T07:30:19.458Z,39.33
2016-05-12T07:31:19.211Z,39.33
2016-05-12T07:32:19.166Z,39.14
2016-05-12T07:33:19.200Z,39.33
2016-05-12T07:34:19.094Z,39.24
2016-05-12T07:35:19.237Z,38.87
2016-05-12T07:36:19.005Z,38.59
2016-05-12T07:37:18.946Z,38.37
2016-05-12T07:38:21.885Z,38.49
2016-05-12T07:39:18.857Z,38.49
2016-05-12T07:40:18.876Z,38.39
2016-05-12T07:41:18.769Z,38.39
2016-05-12T07:42:18.771Z,38.49
2016-05-12T07:43:18.680Z,38.49
2016-05-12T07:44:21.511Z,38.29
2016-05-12T07:45:21.624Z,38.09
2016-05-12T07:46:18.392Z,37.81
2016-05-12T07:47:21.691Z,37.62
2016-05-12T07:48:18.303Z,37.72
2016-05-12T07:49:18.415Z,37.52
2016-05-12T07:50:24.418Z,37.43
2016-05-12T07:51:18.311Z,37.34
2016-05-12T07:52:18.471Z,37.52
2016-05-12T07:53:18.223Z,37.34
2016-05-12T07:54:18.398Z,37.24
2016-05-12T07:55:18.384Z,36.87
2016-05-12T07:56:18.934Z,36.77
2016-05-12T07:57:18.062Z,36.77
2016-05-12T07:58:18.017Z,36.39
2016-05-12T07:59:18.427Z,36.49
2016-05-12T08:00:17.929Z,36.58
2016-05-12T08:01:19.072Z,36.68
2016-05-12T08:02:20.872Z,36.58
2016-05-12T08:03:17.797Z,36.77
2016-05-12T08:04:17.752Z,36.29
2016-05-12T08:05:17.724Z,36.29
2016-05-12T08:06:20.664Z,35.83
2016-05-12T08:07:17.699Z,35.83
2016-05-12T08:08:17.576Z,35.73
2016-05-12T08:09:17.656Z,35.54
2016-05-12T08:10:17.472Z,35.83
2016-05-12T08:11:20.444Z,35.16
2016-05-12T08:12:20.383Z,35.06
2016-05-12T08:13:17.371Z,35.35
2016-05-12T08:14:23.357Z,35.06
2016-05-12T08:15:20.110Z,34.77
2016-05-12T08:16:17.223Z,34.77
2016-05-12T08:17:17.178Z,34.77
2016-05-12T08:18:20.135Z,34.77
2016-05-12T08:19:17.137Z,34.48
2016-05-12T08:20:17.045Z,34.48
2016-05-12T08:21:16.987Z,34.69
2016-05-12T08:22:16.957Z,34.21
2016-05-12T08:23:20.100Z,34.21
2016-05-12T08:24:16.915Z,34.11
2016-05-12T08:25:16.825Z,33.92
2016-05-12T08:26:16.811Z,33.63
2016-05-12T08:27:16.736Z,33.15
2016-05-12T08:28:20.114Z,33.53
2016-05-12T08:29:16.663Z,33.82
2016-05-12T08:30:19.635Z,33.53
2016-05-12T08:31:16.575Z,33.44
2016-05-12T08:32:19.531Z,33.53
2016-05-12T08:33:16.487Z,33.53
2016-05-12T08:34:16.443Z,33.53
2016-05-12T08:35:16.399Z,33.73
2016-05-12T08:36:19.339Z,33.44
2016-05-12T08:37:16.310Z,33.15
2016-05-12T08:38:17.547Z,33.73
2016-05-12T08:39:16.222Z,33.82
2016-05-12T08:40:16.177Z,33.92
2016-05-12T08:41:16.149Z,33.92
2016-05-12T08:42:19.088Z,33.73
2016-05-12T08:43:16.029Z,33.73
2016-05-12T08:44:16.469Z,33.92
2016-05-12T08:45:15.972Z,34.11
2016-05-12T08:46:19.115Z,34.01
2016-05-12T08:47:22.087Z,34.3
2016-05-12T08:48:18.902Z,34.3
2016-05-12T08:49:15.795Z,34.01
2016-05-12T08:50:18.798Z,33.82
2016-05-12T08:51:15.567Z,33.82
2016-05-12T08:52:21.678Z,33.82
2016-05-12T08:53:18.603Z,33.65
2016-05-12T08:54:18.590Z,33.55
2016-05-12T08:55:15.936Z,33.53
2016-05-12T08:56:18.502Z,33.82
2016-05-12T08:57:15.614Z,34.11
2016-05-12T08:58:15.616Z,34.3
2016-05-12T08:59:15.620Z,34.3
2016-05-12T09:00:15.309Z,34.4
2016-05-12T09:01:18.139Z,34.4
2016-05-12T09:02:15.440Z,34.3
2016-05-12T09:03:15.177Z,34.21
2016-05-12T09:04:15.133Z,33.82
2016-05-12T09:05:15.088Z,33.63
2016-05-12T09:06:15.107Z,33.73
2016-05-12T09:07:15.000Z,33.45
2016-05-12T09:08:15.377Z,33.26
2016-05-12T09:09:14.927Z,33.74
2016-05-12T09:10:14.899Z,33.45
2016-05-12T09:11:14.824Z,33.55
2016-05-12T09:12:20.810Z,33.07
2016-05-12T09:13:17.829Z,33.47
2016-05-12T09:14:20.768Z,32.79
2016-05-12T09:15:17.647Z,32.89
2016-05-12T09:16:14.993Z,33.09
2016-05-12T09:17:14.855Z,32.89
2016-05-12T09:18:17.561Z,32.7
2016-05-12T09:19:14.720Z,32.7
2016-05-12T09:20:20.441Z,32.79
2016-05-12T09:21:17.507Z,32.79
2016-05-12T09:22:17.368Z,32.99
2016-05-12T09:23:14.512Z,32.99
2016-05-12T09:24:14.264Z,32.89
2016-05-12T09:25:14.251Z,32.79
2016-05-12T09:26:14.207Z,32.79
2016-05-12T09:27:17.163Z,32.51
2016-05-12T09:28:14.087Z,32.7
2016-05-12T09:29:14.044Z,32.51
2016-05-12T09:30:14.031Z,32.41
2016-05-12T09:31:14.220Z,32.51
2016-05-12T09:32:13.911Z,32.51
2016-05-12T09:33:13.883Z,32.41
2016-05-12T09:34:13.822Z,32.41
2016-05-12T09:35:13.794Z,32.31
2016-05-12T09:36:13.750Z,32.33
2016-05-12T09:37:13.550Z,32.23
2016-05-12T09:38:13.693Z,32.33
2016-05-12T09:39:13.899Z,32.14
2016-05-12T09:40:13.589Z,32.04
2016-05-12T09:41:13.560Z,31.94
2016-05-12T09:42:13.500Z,31.75
2016-05-12T09:43:16.659Z,31.46
2016-05-12T09:44:13.396Z,31.37
2016-05-12T09:45:13.587Z,31.27
2016-05-12T09:46:13.417Z,31.07
2016-05-12T09:47:16.468Z,30.98
2016-05-12T09:48:13.251Z,30.88
2016-05-12T09:49:13.379Z,30.88
2016-05-12T09:50:13.163Z,30.88
2016-05-12T09:51:13.306Z,30.98
2016-05-12T09:52:15.918Z,30.79
2016-05-12T09:53:13.014Z,30.79
2016-05-12T09:54:13.142Z,30.79
2016-05-12T09:55:12.957Z,30.88
2016-05-12T09:56:12.913Z,30.79
2016-05-12T09:57:12.697Z,30.88
2016-05-12T09:58:12.793Z,30.88
2016-05-12T09:59:12.749Z,30.79
2016-05-12T10:00:12.705Z,30.49
2016-05-12T10:01:12.551Z,30.79
2016-05-12T10:02:12.616Z,30.51
2016-05-12T10:03:12.792Z,30.22
2016-05-12T10:04:12.560Z,30.32
2016-05-12T10:05:12.531Z,30.32
2016-05-12T10:06:15.487Z,30.41
2016-05-12T10:07:12.661Z,30.32
2016-05-12T10:08:12.461Z,30.41
2016-05-12T10:09:12.355Z,30.22
2016-05-12T10:10:12.310Z,30.51
2016-05-12T10:11:12.328Z,30.22
2016-05-12T10:12:15.237Z,30.12
2016-05-12T10:13:12.240Z,30.12
2016-05-12T10:14:11.961Z,30.12
2016-05-12T10:15:12.088Z,29.74
2016-05-12T10:16:15.029Z,30.12
2016-05-12T10:17:11.860Z,30.22
2016-05-12T10:18:12.004Z,30.61
2016-05-12T10:19:14.991Z,30.12
2016-05-12T10:20:11.868Z,30.12
2016-05-12T10:21:14.824Z,30.22
2016-05-12T10:22:11.842Z,30.41
2016-05-12T10:23:11.580Z,30.03
2016-05-12T10:24:11.692Z,30.04
2016-05-12T10:25:11.741Z,29.66
2016-05-12T10:26:14.650Z,29.36
2016-05-12T10:27:11.559Z,29.27
2016-05-12T10:28:11.640Z,28.88
2016-05-12T10:29:11.470Z,29.08
2016-05-12T10:30:11.458Z,28.98
2016-05-12T10:31:11.460Z,28.98
2016-05-12T10:32:11.713Z,28.78
2016-05-12T10:33:11.154Z,28.4
2016-05-12T10:34:11.264Z,27.92
2016-05-12T10:35:11.080Z,27.45
2016-05-12T10:36:11.177Z,27.44
2016-05-12T10:37:11.930Z,27.93
2016-05-12T10:38:11.151Z,27.45
2016-05-12T10:39:11.060Z,27.25
2016-05-12T10:40:11.000Z,27.35
2016-05-12T10:41:11.002Z,27.45
2016-05-12T10:42:16.943Z,27.15
2016-05-12T10:43:13.899Z,26.57
2016-05-12T10:44:10.839Z,26.4
2016-05-12T10:45:10.857Z,26.2
2016-05-12T10:46:10.610Z,26.03
2016-05-12T10:47:11.394Z,25.93
2016-05-12T10:48:10.725Z,25.35
2016-05-12T10:49:13.837Z,24.96
2016-05-12T10:50:10.604Z,23.9
2016-05-12T10:51:13.561Z,23.13
2016-05-12T10:52:10.518Z,22.94
2016-05-12T10:53:10.676Z,22.36
2016-05-12T10:54:10.616Z,22.06
2016-05-12T10:55:10.478Z,21.69
2016-05-12T10:56:13.356Z,21.88
2016-05-12T10:57:10.468Z,21.69
2016-05-12T10:58:10.471Z,21.5
2016-05-12T10:59:13.598Z,21.41
2016-05-12T11:00:11.288Z,21.22
2016-05-12T11:01:10.603Z,20.93
2016-05-12T11:02:10.810Z,21.02
2016-05-12T11:03:13.077Z,21.02
2016-05-12T11:04:09.861Z,20.64
2016-05-12T11:05:09.973Z,20.34
2016-05-12T11:06:12.851Z,20.73
2016-05-12T11:07:12.917Z,20.64
2016-05-12T11:08:12.826Z,21.12
2016-05-12T11:09:09.796Z,20.82
2016-05-12T11:10:09.769Z,21.11
2016-05-12T11:11:09.850Z,21.01
2016-05-12T11:12:10.071Z,21.01
2016-05-12T11:13:09.636Z,21.3
2016-05-12T11:14:09.529Z,21
2016-05-12T11:15:09.579Z,21.3
2016-05-12T11:16:09.519Z,21.01
2016-05-12T11:17:09.615Z,21
2016-05-12T11:18:09.462Z,21.11
2016-05-12T11:19:09.371Z,21.01
2016-05-12T11:20:09.388Z,21.01
2016-05-12T11:21:09.563Z,20.92
2016-05-12T11:22:09.894Z,20.9
2016-05-12T11:23:09.209Z,21.1
2016-05-12T11:24:09.181Z,20.62
2016-05-12T11:25:09.012Z,20.62
2016-05-12T11:26:09.734Z,20.71
2016-05-12T11:27:12.064Z,20.23
2016-05-12T11:28:09.004Z,20.42
2016-05-12T11:29:08.835Z,20.13
2016-05-12T11:30:08.932Z,20.04
2016-05-12T11:31:08.887Z,20.24
2016-05-12T11:32:08.858Z,20.14
2016-05-12T11:33:11.815Z,19.95
2016-05-12T11:34:08.786Z,20.14
2016-05-12T11:35:08.944Z,20.24
2016-05-12T11:36:11.698Z,19.95
2016-05-12T11:37:08.481Z,20.14
2016-05-12T11:38:11.609Z,19.37
2016-05-12T11:39:08.643Z,19.27
2016-05-12T11:40:08.522Z,19.46
2016-05-12T11:41:08.539Z,19.09
2016-05-12T11:42:11.541Z,19.18
2016-05-12T11:43:08.405Z,18.51
2016-05-12T11:44:11.407Z,18.21
2016-05-12T11:45:08.566Z,18.51
2016-05-12T11:46:08.288Z,18.51
2016-05-12T11:47:08.477Z,18.03
2016-05-12T11:48:11.199Z,18.13
2016-05-12T11:49:11.404Z,18.51
2016-05-12T11:50:11.127Z,18.51
2016-05-12T11:51:08.082Z,18.03
2016-05-12T11:52:08.053Z,18.22
2016-05-12T11:53:08.024Z,18.03
2016-05-12T11:54:10.980Z,18.13
2016-05-12T11:55:08.140Z,18.12
2016-05-12T11:56:07.876Z,17.83
2016-05-12T11:57:07.848Z,17.64
2016-05-12T11:58:07.804Z,17.35
2016-05-12T11:59:07.743Z,17.64
2016-05-12T12:00:07.903Z,17.25
2016-05-12T12:01:07.656Z,17.16
2016-05-12T12:02:07.627Z,17.35
2016-05-12T12:03:08.084Z,17.16
2016-05-12T12:04:07.539Z,16.86
2016-05-12T12:05:07.509Z,16.78
2016-05-12T12:06:07.778Z,16.58
2016-05-12T12:07:10.437Z,16.38
2016-05-12T12:08:07.596Z,16.39
2016-05-12T12:09:10.428Z,15.81
2016-05-12T12:10:07.148Z,16.19
2016-05-12T12:11:07.244Z,16.09
2016-05-12T12:12:10.216Z,16
2016-05-12T12:13:07.235Z,15.52
2016-05-12T12:14:07.143Z,15.52
2016-05-12T12:15:07.396Z,15.42
2016-05-12T12:16:06.914Z,15.42
2016-05-12T12:17:07.089Z,15.33
2016-05-12T12:18:07.030Z,15.62
2016-05-12T12:19:06.829Z,15.04
2016-05-12T12:20:06.769Z,15.04
2016-05-12T12:21:06.865Z,14.47
2016-05-12T12:22:09.650Z,14.27
2016-05-12T12:23:06.762Z,14.37
2016-05-12T12:24:06.718Z,14.27
2016-05-12T12:25:06.688Z,14.27
2016-05-12T12:26:06.676Z,14.27
2016-05-12T12:27:06.616Z,14.07
2016-05-12T12:28:06.665Z,13.88
2016-05-12T12:29:06.574Z,13.59
2016-05-12T12:30:06.530Z,13.78
2016-05-12T12:31:06.454Z,13.68
2016-05-12T12:32:09.412Z,13.68
2016-05-12T12:33:06.382Z,13.59
2016-05-12T12:34:06.369Z,13.31
2016-05-12T12:35:06.497Z,13.5
2016-05-12T12:36:06.312Z,13.59
2016-05-12T12:37:06.206Z,13.11
2016-05-12T12:38:06.568Z,12.82
2016-05-12T12:39:06.117Z,13.01
2016-05-12T12:40:05.964Z,12.43
2016-05-12T12:41:06.248Z,12.63
2016-05-12T12:42:06.016Z,12.73
2016-05-12T12:43:06.175Z,12.53
2016-05-12T12:44:05.927Z,12.82
2016-05-12T12:45:05.883Z,12.73
2016-05-12T12:46:05.839Z,12.63
2016-05-12T12:47:05.810Z,12.15
2016-05-12T12:48:08.782Z,12.24
2016-05-12T12:49:05.721Z,12.34
2016-05-12T12:50:05.678Z,11.85
2016-05-12T12:51:05.649Z,11.46
2016-05-12T12:52:05.590Z,11.46
2016-05-12T12:53:11.811Z,11.18
2016-05-12T12:54:05.579Z,11.27
2016-05-12T12:55:05.504Z,11.47
2016-05-12T12:56:08.444Z,11.47
2016-05-12T12:57:05.432Z,11.76
2016-05-12T12:58:05.356Z,11.85